createdAt,value
2019-05-21T01:57:38.986Z,16.67
2019-05-21T02:00:08.549Z,16.67
2019-05-21T02:02:39.210Z,16.10
2019-05-21T02:05:08.726Z,16.07
2019-05-21T02:07:38.332Z,16.06
2019-05-21T02:10:11.425Z,16.02
2019-05-21T02:12:43.882Z,16.01
2019-05-21T02:15:13.450Z,16.03
2019-05-21T02:17:43.417Z,16.00
2019-05-21T02:20:13.543Z,15.99
2019-05-21T02:22:43.274Z,16.01
2019-05-21T02:25:13.612Z,16.00
2019-05-21T02:27:43.187Z,15.99
2019-05-21T02:30:14.174Z,15.94
2019-05-21T02:32:44.639Z,15.91
2019-05-21T02:35:16.761Z,15.90
2019-05-21T02:37:46.444Z,15.89
2019-05-21T02:40:17.289Z,15.86
2019-05-21T02:42:48.792Z,15.81
2019-05-21T02:45:18.869Z,15.81
2019-05-21T02:47:49.385Z,15.76
2019-05-21T02:50:21.660Z,15.74
2019-05-21T02:52:51.023Z,15.67
2019-05-21T02:55:20.573Z,15.67
2019-05-21T02:57:50.784Z,15.65
2019-05-21T03:00:42.446Z,15.61
2019-05-21T03:03:14.203Z,15.57
2019-05-21T03:05:44.199Z,15.53
2019-05-21T03:08:36.889Z,15.52
2019-05-21T03:11:16.672Z,15.50
2019-05-21T03:13:55.513Z,15.51
2019-05-21T03:16:31.102Z,15.51
2019-05-21T03:19:08.867Z,15.52
2019-05-21T03:21:38.968Z,15.50
2019-05-21T03:24:10.855Z,15.50
2019-05-21T03:26:40.981Z,15.49
2019-05-21T03:29:11.463Z,15.47
2019-05-21T03:31:42.601Z,15.48
2019-05-21T04:12:41.294Z,15.42
2019-05-21T04:16:45.202Z,15.40
2019-05-21T04:23:29.617Z,15.38
2019-05-21T04:26:44.463Z,15.39
2019-05-21T04:58:34.123Z,15.48
2019-05-21T05:01:14.813Z,15.50
2019-05-21T05:04:00.364Z,15.49
2019-05-21T05:06:40.738Z,15.51
2019-05-21T05:09:15.887Z,15.54
2019-05-21T05:12:20.617Z,15.54
2019-05-21T05:14:45.577Z,15.55
2019-05-21T05:17:11.193Z,15.58
2019-05-21T05:19:45.386Z,15.57
2019-05-21T05:22:23.139Z,15.56
2019-05-21T05:25:04.083Z,15.58
2019-05-21T05:27:40.420Z,15.61
2019-05-21T05:30:57.254Z,15.62
2019-05-21T05:40:51.121Z,15.80
2019-05-21T05:46:48.148Z,15.88
2019-05-21T05:49:27.777Z,15.04
2019-05-21T05:51:57.543Z,15.86
2019-05-21T05:54:34.720Z,15.86
2019-05-21T05:57:04.172Z,15.83
2019-05-21T05:59:34.159Z,15.81
2019-05-21T06:02:03.709Z,15.82
2019-05-21T06:04:33.520Z,15.81
2019-05-21T06:07:02.990Z,15.81
2019-05-21T06:09:32.766Z,15.83
2019-05-21T06:12:02.873Z,15.79
2019-05-21T06:14:33.025Z,15.78
2019-05-21T06:17:02.946Z,15.78
2019-05-21T06:19:32.269Z,15.78
2019-05-21T06:22:01.520Z,15.76
2019-05-21T06:24:30.881Z,15.80
2019-05-21T06:27:00.340Z,15.84
2019-05-21T06:29:29.899Z,15.90
2019-05-21T06:31:59.367Z,15.89
2019-05-21T06:34:28.528Z,15.89
2019-05-21T06:36:58.129Z,15.88
2019-05-21T06:39:27.725Z,15.88
2019-05-21T06:41:59.559Z,15.87
2019-05-21T06:44:28.604Z,15.87
2019-05-21T06:46:57.914Z,15.86
2019-05-21T06:49:26.974Z,15.88
2019-05-21T06:51:56.031Z,15.89
2019-05-21T06:54:25.404Z,15.88
2019-05-21T06:56:54.358Z,15.84
2019-05-21T06:59:23.438Z,15.80
2019-05-21T07:01:52.850Z,15.77
2019-05-21T07:04:22.003Z,15.76
2019-05-21T07:06:51.514Z,15.74
2019-05-21T07:09:20.841Z,15.71
2019-05-21T07:11:49.879Z,15.71
2019-05-21T07:14:18.967Z,15.71
2019-05-21T07:16:48.265Z,15.72
2019-05-21T07:19:17.579Z,15.75
2019-05-21T07:21:47.070Z,15.76
2019-05-21T07:24:16.063Z,15.72
2019-05-21T07:26:45.386Z,15.70
2019-05-21T07:29:14.846Z,15.68
2019-05-21T07:31:44.059Z,15.71
2019-05-21T07:34:13.135Z,15.70
2019-05-21T07:36:42.818Z,15.71
2019-05-21T07:39:12.235Z,15.73
2019-05-21T07:41:41.652Z,15.76
2019-05-21T07:44:11.200Z,15.76
2019-05-21T07:46:40.691Z,15.79
2019-05-21T07:49:10.039Z,15.82
2019-05-21T07:51:39.351Z,15.84
2019-05-21T07:54:08.752Z,15.84
2019-05-21T07:56:37.929Z,15.81
2019-05-21T07:59:07.305Z,15.81
2019-05-21T16:33:33.531Z,15.79
2019-05-21T16:38:34.785Z,15.02
2019-05-21T16:39:17.400Z,15.79
2019-05-21T16:41:04.931Z,15.03
2019-05-21T16:43:34.034Z,15.02
2019-05-21T16:46:03.436Z,15.01
2019-05-21T16:48:32.679Z,14.96
2019-05-21T16:51:01.886Z,14.95
2019-05-21T16:53:31.180Z,14.94
2019-05-21T16:56:01.667Z,14.95
2019-05-21T16:58:31.309Z,14.93
2019-05-21T17:01:00.892Z,14.90
2019-05-21T17:03:30.049Z,14.89
2019-05-21T17:05:59.509Z,14.83
2019-05-21T17:08:32.040Z,14.77
2019-05-21T17:11:01.337Z,14.75
2019-05-21T17:13:30.792Z,14.75
2019-05-21T17:16:00.754Z,14.72
2019-05-21T17:18:30.557Z,14.70
2019-05-21T17:20:59.736Z,14.66
2019-05-21T17:23:41.025Z,14.59
2019-05-21T17:26:10.741Z,14.54
2019-05-21T17:28:48.289Z,14.51
2019-05-21T17:31:23.393Z,14.51
2019-05-21T17:33:52.905Z,14.43
2019-05-21T17:36:22.469Z,14.41
2019-05-21T17:38:52.094Z,14.40
2019-05-21T17:41:22.209Z,14.38
2019-05-21T17:43:53.074Z,14.36
2019-05-21T17:46:23.890Z,14.35
2019-05-21T17:48:56.404Z,14.30
2019-05-21T17:51:27.805Z,14.25
2019-05-21T17:53:57.344Z,14.21
2019-05-21T17:56:28.354Z,14.15
2019-05-21T17:59:01.578Z,14.14
2019-05-21T18:01:31.177Z,14.10
2019-05-21T18:05:30.589Z,14.07
2019-05-21T18:07:40.768Z,14.04
2019-05-21T18:10:16.660Z,13.97
2019-05-21T18:12:57.562Z,13.92
2019-05-21T18:15:27.583Z,13.86
2019-05-21T18:19:00.904Z,13.83
2019-05-21T18:20:46.515Z,13.82
2019-05-21T18:23:26.030Z,13.80
2019-05-21T18:25:50.957Z,13.78
2019-05-21T18:28:21.678Z,13.75
2019-05-21T18:31:39.322Z,13.76
2019-05-21T18:34:10.089Z,13.73
2019-05-21T18:36:48.859Z,13.68
2019-05-21T18:39:24.425Z,13.68
2019-05-21T18:41:54.804Z,13.68
2019-05-21T18:44:28.021Z,13.64
2019-05-21T18:46:58.870Z,13.65
2019-05-21T18:50:35.550Z,13.62
2019-05-21T18:52:30.572Z,13.58
2019-05-21T18:54:52.052Z,13.57
2019-05-21T18:57:27.111Z,13.53
2019-05-21T19:00:07.202Z,13.49
2019-05-21T19:02:40.802Z,13.48
2019-05-21T19:05:11.187Z,13.46
2019-05-21T19:07:43.005Z,13.44
2019-05-21T19:10:22.952Z,13.45
2019-05-21T19:13:17.054Z,13.46
2019-05-21T19:15:47.048Z,13.42
2019-05-21T19:18:16.966Z,13.43
2019-05-21T19:20:50.132Z,13.41
2019-05-21T19:23:19.712Z,13.42
2019-05-21T19:25:53.432Z,13.41
2019-05-21T19:28:24.757Z,13.40
2019-05-21T19:31:05.332Z,13.37
2019-05-21T19:33:41.501Z,13.31
2019-05-21T19:36:12.887Z,13.27
2019-05-21T19:38:42.199Z,13.29
2019-05-21T19:42:55.067Z,13.32
2019-05-21T19:53:18.876Z,13.29
2019-05-21T19:57:01.375Z,13.22
2019-05-21T19:59:38.148Z,13.20
2019-05-21T20:02:06.874Z,13.21
2019-05-21T20:04:37.251Z,13.15
2019-05-21T20:07:20.525Z,13.16
2019-05-21T20:09:54.757Z,13.15
2019-05-21T20:12:30.259Z,13.16
2019-05-21T20:15:01.336Z,13.15
2019-05-21T20:17:32.434Z,13.11
2019-05-21T20:20:03.477Z,13.10
2019-05-21T20:22:35.315Z,13.11
2019-05-21T20:25:16.084Z,13.09
2019-05-21T20:27:53.519Z,13.09
2019-05-21T20:30:31.782Z,13.09
2019-05-21T20:33:42.078Z,13.04
2019-05-21T20:36:10.892Z,13.02
2019-05-21T20:38:48.806Z,13.02
2019-05-21T20:41:32.280Z,12.98
2019-05-21T20:44:54.705Z,12.92
2019-05-21T20:47:40.472Z,12.91
2019-05-21T20:50:59.027Z,12.90
2019-05-21T20:53:49.210Z,12.88
2019-05-21T20:56:28.538Z,12.88
2019-05-21T20:59:28.356Z,12.81
2019-05-21T21:02:36.838Z,12.77
2019-05-21T21:05:29.994Z,12.72
2019-05-21T21:08:27.859Z,12.67
2019-05-21T21:11:44.176Z,12.62
2019-05-21T21:14:54.583Z,12.63
2019-05-21T21:18:14.887Z,12.59
2019-05-21T21:21:33.799Z,12.52
2019-05-21T21:24:25.674Z,12.51
2019-05-21T21:27:10.235Z,12.48
2019-05-21T21:30:07.237Z,12.48
2019-05-21T21:38:22.332Z,12.41
2019-05-21T21:41:53.102Z,12.37
2019-05-21T21:44:43.878Z,12.35
2019-05-21T21:47:15.638Z,12.32
2019-05-21T21:49:46.986Z,12.29
2019-05-21T21:52:18.894Z,12.30
2019-05-21T21:54:48.283Z,12.27
2019-05-21T21:57:19.540Z,12.27
2019-05-21T21:59:49.352Z,12.28
2019-05-21T22:02:29.164Z,12.24
2019-05-21T22:05:00.031Z,12.23
2019-05-21T22:07:30.252Z,12.23
2019-05-21T22:09:59.962Z,12.21
2019-05-21T22:12:30.025Z,12.20
2019-05-21T22:15:02.437Z,12.18
2019-05-21T22:17:33.979Z,12.18
2019-05-21T22:20:05.498Z,12.19
2019-05-21T22:22:38.475Z,12.17
2019-05-21T22:25:08.235Z,12.16
2019-05-21T22:27:38.464Z,12.16
2019-05-21T22:30:19.251Z,12.16
2019-05-21T22:36:13.096Z,12.16
2019-05-21T22:38:43.804Z,12.14
2019-05-21T22:41:14.254Z,12.12
2019-05-21T22:43:45.153Z,12.07
2019-05-21T22:46:15.547Z,12.04
2019-05-21T22:48:52.764Z,11.99
2019-05-21T22:51:23.021Z,11.98
2019-05-21T22:53:52.913Z,11.97
2019-05-21T22:56:23.381Z,11.99
2019-05-21T22:58:54.198Z,11.96
2019-05-21T23:01:26.229Z,11.98
2019-05-21T23:03:57.319Z,11.97
2019-05-21T23:06:27.699Z,11.98
2019-05-21T23:08:58.234Z,11.98
2019-05-21T23:11:31.260Z,11.98
2019-05-21T23:14:01.833Z,11.97
2019-05-21T23:16:32.168Z,11.93
2019-05-21T23:19:04.325Z,11.89
2019-05-21T23:21:38.334Z,11.89
2019-05-21T23:24:13.970Z,11.87
2019-05-21T23:26:45.245Z,11.87
2019-05-21T23:29:21.596Z,11.87
2019-05-21T23:31:53.012Z,11.84
2019-05-21T23:34:24.720Z,11.84
2019-05-21T23:36:55.210Z,11.82
2019-05-21T23:39:28.963Z,11.80
2019-05-21T23:41:59.232Z,11.75
2019-05-21T23:44:29.638Z,11.72
2019-05-21T23:47:00.656Z,11.72
2019-05-21T23:49:30.362Z,11.69
2019-05-21T23:52:00.803Z,11.68
2019-05-21T23:55:20.078Z,11.66
2019-05-21T23:58:58.481Z,11.64
